createdAt,value
2022-09-14T00:01:25.887Z,99906.41
2022-09-14T00:04:00.132Z,99906.06
2022-09-14T00:06:27.999Z,99896.69
2022-09-14T00:08:56.092Z,99896.84
2022-09-14T00:11:25.238Z,99891.97
2022-09-14T00:13:53.040Z,99890.34
2022-09-14T00:16:23.918Z,99881.22
2022-09-14T00:18:52.536Z,99895.00
2022-09-14T00:21:19.248Z,99886.81
2022-09-14T00:23:45.975Z,99888.97
2022-09-14T00:26:16.274Z,99885.81
2022-09-14T00:28:47.155Z,99876.03
2022-09-14T00:31:14.396Z,99871.16
2022-09-14T00:33:42.987Z,99868.47
2022-09-14T00:36:15.252Z,99873.34
2022-09-14T00:38:42.124Z,99864.75
2022-09-14T00:41:13.276Z,99867.47
2022-09-14T00:43:58.156Z,99862.94
2022-09-14T00:46:26.974Z,99865.59
2022-09-14T00:48:56.232Z,99864.41
2022-09-14T00:51:23.555Z,99860.94
2022-09-14T00:53:50.668Z,99869.75
2022-09-14T00:56:17.863Z,99869.91
2022-09-14T00:58:46.761Z,99866.50
2022-09-14T01:01:14.192Z,99871.16
2022-09-14T01:03:40.865Z,99862.88
2022-09-14T01:06:22.275Z,99867.72
2022-09-14T01:09:05.700Z,99871.69
2022-09-14T01:11:56.790Z,99858.50
2022-09-14T01:14:51.056Z,99858.78
2022-09-14T01:17:24.502Z,99864.78
2022-09-14T01:20:15.828Z,99861.28
2022-09-14T01:23:04.370Z,99865.13
2022-09-14T01:25:54.560Z,99864.69
2022-09-14T01:28:52.567Z,99873.28
2022-09-14T01:31:38.540Z,99870.91
2022-09-14T01:34:14.420Z,99863.03
2022-09-14T01:36:44.823Z,99859.81
2022-09-14T01:39:13.316Z,99865.06
2022-09-14T01:41:42.349Z,99867.53
2022-09-14T01:44:17.393Z,99859.00
2022-09-14T01:46:54.139Z,99861.00
2022-09-14T01:49:32.272Z,99867.41
2022-09-14T01:52:02.755Z,99865.94
2022-09-14T01:54:34.709Z,99865.03
2022-09-14T01:57:35.644Z,99869.84
2022-09-14T02:00:08.811Z,99873.38
2022-09-14T02:02:40.458Z,99869.91
2022-09-14T02:05:13.778Z,99872.34
2022-09-14T02:07:41.042Z,99873.41
2022-09-14T02:10:11.783Z,99866.53
2022-09-14T02:12:40.149Z,99864.75
2022-09-14T02:15:09.756Z,99860.47
2022-09-14T02:17:36.566Z,99857.84
2022-09-14T02:20:07.005Z,99858.41
2022-09-14T02:22:34.044Z,99857.97
2022-09-14T02:25:01.020Z,99852.06
2022-09-14T02:27:27.695Z,99852.91
2022-09-14T02:29:54.966Z,99849.50
2022-09-14T02:32:32.004Z,99834.41
2022-09-14T02:35:07.453Z,99824.31
2022-09-14T02:37:53.609Z,99825.50
2022-09-14T02:40:37.325Z,99828.41
2022-09-14T02:43:34.995Z,99822.03
2022-09-14T02:46:11.789Z,99820.41
2022-09-14T02:48:54.408Z,99824.78
2022-09-14T02:51:46.033Z,99830.44
2022-09-14T02:54:37.023Z,99829.47
2022-09-14T02:57:04.673Z,99831.44
2022-09-14T02:59:31.695Z,99833.47
2022-09-14T03:02:00.821Z,99831.84
2022-09-14T03:04:28.405Z,99830.09
2022-09-14T03:06:54.976Z,99838.16
2022-09-14T03:09:21.553Z,99833.06
2022-09-14T03:11:48.513Z,99839.78
2022-09-14T03:14:15.099Z,99839.78
2022-09-14T03:16:41.762Z,99837.38
2022-09-14T03:19:08.571Z,99836.34
2022-09-14T03:21:37.960Z,99824.34
2022-09-14T03:24:04.711Z,99811.78
2022-09-14T03:26:31.398Z,99809.88
2022-09-14T03:28:59.215Z,99818.41
2022-09-14T03:31:26.643Z,99817.50
2022-09-14T03:33:55.123Z,99817.34
2022-09-14T03:36:22.437Z,99811.25
2022-09-14T03:38:51.704Z,99816.91
2022-09-14T03:41:20.750Z,99818.94
2022-09-14T03:43:48.091Z,99809.72
2022-09-14T03:46:21.468Z,99819.25
2022-09-14T03:48:48.840Z,99817.09
2022-09-14T03:51:16.003Z,99814.16
2022-09-14T03:53:44.943Z,99813.38
2022-09-14T03:56:17.676Z,99809.50
2022-09-14T03:58:45.569Z,99809.38
2022-09-14T04:01:16.089Z,99809.75
2022-09-14T04:03:43.337Z,99800.84
2022-09-14T04:06:10.386Z,99806.16
2022-09-14T04:08:39.419Z,99800.69
2022-09-14T04:11:16.761Z,99801.06
2022-09-14T04:13:44.804Z,99788.06
2022-09-14T04:16:12.041Z,99789.44
2022-09-14T04:18:38.990Z,99779.72
2022-09-14T04:21:08.652Z,99784.59
2022-09-14T04:23:46.159Z,99779.97
2022-09-14T04:26:20.562Z,99783.59
2022-09-14T04:28:47.292Z,99772.75
2022-09-14T04:31:14.791Z,99773.56
2022-09-14T04:33:43.035Z,99768.81
2022-09-14T04:36:15.000Z,99775.00
2022-09-14T04:38:43.334Z,99774.00
2022-09-14T04:41:15.158Z,99772.75
2022-09-14T04:43:43.015Z,99783.63
2022-09-14T04:46:18.093Z,99786.38
2022-09-14T04:48:44.927Z,99789.56
2022-09-14T04:51:16.658Z,99781.25
2022-09-14T04:53:43.966Z,99778.91
2022-09-14T04:56:12.288Z,99775.94
2022-09-14T04:58:43.140Z,99783.81
2022-09-14T05:01:17.375Z,99778.06
2022-09-14T05:03:44.102Z,99781.50
2022-09-14T05:06:17.912Z,99782.19
2022-09-14T05:08:45.383Z,99786.81
2022-09-14T05:11:14.978Z,99785.53
2022-09-14T05:13:42.698Z,99782.53
2022-09-14T05:16:16.380Z,99776.78
2022-09-14T05:18:44.204Z,99787.22
2022-09-14T05:21:13.400Z,99778.91
2022-09-14T05:23:40.153Z,99780.44
2022-09-14T05:26:06.936Z,99781.06
2022-09-14T05:28:34.714Z,99782.13
2022-09-14T05:31:07.390Z,99783.81
2022-09-14T05:33:35.041Z,99773.41
2022-09-14T05:36:02.437Z,99776.78
2022-09-14T05:38:31.312Z,99769.97
2022-09-14T05:40:57.908Z,99762.13
2022-09-14T05:43:25.264Z,99767.06
2022-09-14T05:45:52.070Z,99770.59
2022-09-14T05:48:19.066Z,99759.75
2022-09-14T05:50:45.707Z,99764.63
2022-09-14T05:53:12.451Z,99764.28
2022-09-14T05:55:39.092Z,99761.34
2022-09-14T05:58:05.930Z,99766.97
2022-09-14T06:00:32.611Z,99765.63
2022-09-14T06:02:59.237Z,99763.63
2022-09-14T06:05:25.887Z,99761.81
2022-09-14T06:07:53.256Z,99761.97
2022-09-14T06:10:21.523Z,99765.03
2022-09-14T06:12:51.160Z,99754.69
2022-09-14T06:15:20.160Z,99753.59
2022-09-14T06:17:46.760Z,99750.94
2022-09-14T06:20:13.404Z,99754.56
2022-09-14T06:22:40.002Z,99761.94
2022-09-14T06:25:07.029Z,99751.84
2022-09-14T06:27:33.675Z,99756.81
2022-09-14T06:30:00.376Z,99759.78
2022-09-14T06:32:30.475Z,99757.94
2022-09-14T06:34:57.288Z,99757.94
2022-09-14T06:37:23.958Z,99760.09
2022-09-14T06:39:50.700Z,99758.38
2022-09-14T06:42:17.309Z,99764.41
2022-09-14T06:44:44.913Z,99752.34
2022-09-14T06:47:11.470Z,99749.94
2022-09-14T06:49:38.095Z,99747.25
2022-09-14T06:52:04.784Z,99747.63
2022-09-14T06:54:31.391Z,99744.75
2022-09-14T06:56:58.437Z,99743.78
2022-09-14T06:59:25.139Z,99746.75
2022-09-14T07:01:51.771Z,99744.72
2022-09-14T07:04:18.512Z,99744.97
2022-09-14T07:06:47.479Z,99746.81
2022-09-14T07:09:15.331Z,99752.19
2022-09-14T07:11:42.251Z,99753.13
2022-09-14T07:14:09.721Z,99760.41
2022-09-14T07:16:37.899Z,99757.25
2022-09-14T07:19:09.570Z,99765.03
2022-09-14T07:21:36.583Z,99766.22
2022-09-14T07:24:03.783Z,99764.03
2022-09-14T07:26:33.701Z,99762.53
2022-09-14T07:29:05.329Z,99753.84
2022-09-14T07:31:41.119Z,99759.13
2022-09-14T07:34:08.387Z,99755.75
2022-09-14T07:36:36.500Z,99762.34
2022-09-14T07:39:06.226Z,99753.81
2022-09-14T07:41:34.508Z,99759.88
2022-09-14T07:44:03.821Z,99761.63
2022-09-14T07:46:38.368Z,99765.88
2022-09-14T07:49:06.594Z,99757.84
2022-09-14T07:51:35.072Z,99763.56
2022-09-14T07:54:02.379Z,99761.56
2022-09-14T07:56:29.617Z,99753.78
2022-09-14T07:59:17.149Z,99760.28
2022-09-14T08:01:47.006Z,99753.31
2022-09-14T08:04:13.766Z,99752.53
2022-09-14T08:06:40.793Z,99757.13
2022-09-14T08:09:11.171Z,99754.25
2022-09-14T08:11:38.191Z,99763.59
2022-09-14T08:14:06.870Z,99758.72
2022-09-14T08:16:38.822Z,99750.13
2022-09-14T08:19:08.275Z,99747.09
2022-09-14T08:21:35.751Z,99743.34
2022-09-14T08:24:04.324Z,99740.38
2022-09-14T08:26:31.379Z,99743.06
2022-09-14T08:29:02.180Z,99744.22
2022-09-14T08:31:29.664Z,99740.72
2022-09-14T08:34:00.934Z,99737.31
2022-09-14T08:36:33.081Z,99736.59
2022-09-14T08:39:00.638Z,99738.56
2022-09-14T08:41:36.836Z,99742.81
2022-09-14T08:44:18.032Z,99730.59
2022-09-14T08:46:55.852Z,99723.19
2022-09-14T08:49:28.845Z,99713.06
2022-09-14T08:51:56.073Z,99721.88
2022-09-14T08:54:23.175Z,99718.44
2022-09-14T08:57:01.992Z,99723.50
2022-09-14T08:59:31.567Z,99718.44
2022-09-14T09:02:27.511Z,99726.16
2022-09-14T09:05:02.081Z,99727.56
2022-09-14T09:07:37.926Z,99726.47
2022-09-14T09:10:06.477Z,99726.19
2022-09-14T09:12:43.955Z,99722.28
2022-09-14T09:15:51.202Z,99722.66
2022-09-14T09:18:32.440Z,99720.16
2022-09-14T09:21:08.547Z,99713.50
2022-09-14T09:23:35.600Z,99715.75
2022-09-14T09:26:12.007Z,99709.53
2022-09-14T09:28:45.924Z,99714.06
2022-09-14T09:31:15.043Z,99701.16
2022-09-14T09:34:04.554Z,99704.31
2022-09-14T09:36:36.044Z,99698.50
2022-09-14T09:39:05.371Z,99698.94
2022-09-14T09:41:51.183Z,99707.56
2022-09-14T09:44:17.977Z,99708.97
2022-09-14T09:46:56.014Z,99703.06
2022-09-14T09:49:35.091Z,99709.78
2022-09-14T09:52:15.205Z,99703.13
2022-09-14T09:54:48.927Z,99700.16
2022-09-14T09:57:22.110Z,99701.56
2022-09-14T09:59:49.040Z,99694.81
2022-09-14T10:02:32.161Z,99706.41
2022-09-14T10:05:09.294Z,99699.28
2022-09-14T10:07:43.230Z,99693.44
2022-09-14T10:10:14.117Z,99693.06
2022-09-14T10:12:47.621Z,99684.16
2022-09-14T10:15:28.382Z,99680.41
2022-09-14T10:18:13.289Z,99675.34
2022-09-14T10:21:03.053Z,99674.03
2022-09-14T10:23:33.557Z,99672.66
2022-09-14T10:26:12.353Z,99670.66
2022-09-14T10:28:41.165Z,99677.63
2022-09-14T10:31:19.885Z,99660.75
2022-09-14T10:33:47.906Z,99667.47
2022-09-14T10:36:21.832Z,99671.50
2022-09-14T10:38:53.088Z,99661.81
2022-09-14T10:41:19.751Z,99661.66
2022-09-14T10:44:08.391Z,99666.03
2022-09-14T10:46:49.000Z,99657.59
2022-09-14T10:49:32.272Z,99671.03
2022-09-14T10:52:16.742Z,99674.56
2022-09-14T10:55:02.081Z,99670.28
2022-09-14T10:57:44.620Z,99672.31
2022-09-14T11:00:18.735Z,99673.66
2022-09-14T11:02:45.328Z,99671.50
2022-09-14T11:05:20.034Z,99671.94
2022-09-14T11:08:17.312Z,99668.97
2022-09-14T11:11:09.295Z,99654.22
2022-09-14T11:14:16.620Z,99648.53
2022-09-14T11:17:01.907Z,99645.47
2022-09-14T11:19:28.490Z,99649.38
2022-09-14T11:22:08.777Z,99647.31
2022-09-14T11:24:55.730Z,99653.28
2022-09-14T11:27:25.942Z,99645.16
2022-09-14T11:30:15.704Z,99650.16
2022-09-14T11:32:42.330Z,99649.16
2022-09-14T11:35:19.105Z,99645.88
2022-09-14T11:37:49.408Z,99643.06
2022-09-14T11:40:19.069Z,99640.09
2022-09-14T11:43:15.940Z,99653.78
2022-09-14T11:45:50.888Z,99648.84
2022-09-14T11:48:42.277Z,99647.59
2022-09-14T11:51:18.145Z,99649.44
2022-09-14T11:53:46.565Z,99648.44
2022-09-14T11:56:29.882Z,99645.44
2022-09-14T11:58:59.679Z,99646.00
2022-09-14T12:01:36.999Z,99637.75
2022-09-14T12:04:11.712Z,99639.09
2022-09-14T12:06:38.335Z,99628.22
2022-09-14T12:09:14.019Z,99619.09
2022-09-14T12:11:42.538Z,99623.44
2022-09-14T12:14:30.919Z,99614.44
2022-09-14T12:17:22.568Z,99614.00
2022-09-14T12:19:57.984Z,99622.59
2022-09-14T12:22:32.716Z,99626.34
2022-09-14T12:25:25.851Z,99619.31
2022-09-14T12:27:52.504Z,99614.16
2022-09-14T12:30:41.361Z,99624.88
2022-09-14T12:33:33.283Z,99627.66
2022-09-14T12:36:06.858Z,99627.66
2022-09-14T12:38:55.181Z,99627.66
2022-09-14T12:41:21.781Z,99620.44
2022-09-14T12:43:51.596Z,99609.38
2022-09-14T12:46:21.483Z,99611.72
2022-09-14T12:48:53.139Z,99613.94
2022-09-14T12:51:27.326Z,99616.47
2022-09-14T12:54:09.225Z,99617.44
2022-09-14T12:57:03.856Z,99611.66
2022-09-14T12:59:49.361Z,99613.78
2022-09-14T13:02:37.111Z,99611.38
2022-09-14T13:05:08.365Z,99608.09
2022-09-14T13:07:36.654Z,99606.72
2022-09-14T13:10:05.606Z,99595.38
2022-09-14T13:12:41.420Z,99592.75
2022-09-14T13:15:22.468Z,99591.50
2022-09-14T13:18:18.625Z,99586.72
2022-09-14T13:20:55.658Z,99579.16
2022-09-14T13:23:39.020Z,99584.44
2022-09-14T13:26:23.580Z,99580.78
2022-09-14T13:28:52.463Z,99577.38
2022-09-14T13:31:27.397Z,99584.41
2022-09-14T13:33:55.864Z,99572.31
2022-09-14T13:36:26.330Z,99577.53
2022-09-14T13:38:54.298Z,99583.56
2022-09-14T13:41:23.116Z,99580.97
2022-09-14T13:43:54.153Z,99579.69
2022-09-14T13:46:23.045Z,99575.00
2022-09-14T13:48:50.789Z,99576.50
2022-09-14T13:51:23.875Z,99572.91
2022-09-14T13:53:58.691Z,99574.19
2022-09-14T13:56:33.218Z,99568.56
2022-09-14T13:59:09.175Z,99573.50
2022-09-14T14:01:42.495Z,99566.13
2022-09-14T14:04:29.533Z,99560.13
2022-09-14T14:07:22.342Z,99554.91
2022-09-14T14:09:54.728Z,99560.78
2022-09-14T14:12:27.117Z,99549.22
2022-09-14T14:14:59.786Z,99551.75
2022-09-14T14:17:29.315Z,99546.50
2022-09-14T14:19:58.787Z,99546.88
2022-09-14T14:22:29.729Z,99545.31
2022-09-14T14:25:12.788Z,99549.88
2022-09-14T14:27:46.569Z,99551.44
2022-09-14T14:30:18.280Z,99540.78
2022-09-14T14:32:51.104Z,99532.25
2022-09-14T14:35:22.645Z,99525.91
2022-09-14T14:37:50.812Z,99528.59
2022-09-14T14:40:19.258Z,99525.81
2022-09-14T14:42:46.973Z,99524.44
2022-09-14T14:45:26.615Z,99524.13
2022-09-14T14:47:55.471Z,99522.94
2022-09-14T14:50:26.667Z,99518.59
2022-09-14T14:52:53.884Z,99513.53
2022-09-14T14:55:21.494Z,99509.56
2022-09-14T14:57:49.201Z,99507.53
2022-09-14T15:00:22.221Z,99507.97
2022-09-14T15:02:49.493Z,99502.25
2022-09-14T15:05:16.965Z,99498.50
2022-09-14T15:07:43.858Z,99497.34
2022-09-14T15:10:15.224Z,99498.66
2022-09-14T15:12:42.624Z,99496.22
2022-09-14T15:15:13.213Z,99494.06
2022-09-14T15:17:39.855Z,99497.59
2022-09-14T15:20:07.080Z,99494.56
2022-09-14T15:22:33.646Z,99490.56
2022-09-14T15:25:00.259Z,99494.84
2022-09-14T15:27:26.898Z,99495.13
2022-09-14T15:29:53.573Z,99490.53
2022-09-14T15:32:20.200Z,99482.47
2022-09-14T15:34:47.263Z,99483.59
2022-09-14T15:37:14.103Z,99488.97
2022-09-14T15:39:40.786Z,99491.19
2022-09-14T15:42:07.551Z,99497.09
2022-09-14T15:44:34.178Z,99495.44
2022-09-14T15:47:01.433Z,99492.50
2022-09-14T15:49:28.183Z,99489.38
2022-09-14T15:51:56.495Z,99488.53
2022-09-14T15:54:25.668Z,99492.50
2022-09-14T15:56:55.092Z,99487.03
2022-09-14T15:59:22.459Z,99489.53
2022-09-14T16:01:49.470Z,99491.75
2022-09-14T16:04:16.791Z,99495.84
2022-09-14T16:06:43.393Z,99496.22
2022-09-14T16:09:12.062Z,99485.19
2022-09-14T16:11:39.731Z,99495.28
2022-09-14T16:14:07.889Z,99491.38
2022-09-14T16:16:36.141Z,99485.44
2022-09-14T16:19:08.657Z,99477.81
2022-09-14T16:21:36.368Z,99477.22
2022-09-14T16:24:07.118Z,99485.75
2022-09-14T16:26:36.318Z,99494.25
2022-09-14T16:29:03.497Z,99485.66
2022-09-14T16:31:35.825Z,99473.94
2022-09-14T16:34:06.148Z,99485.53
2022-09-14T16:36:35.274Z,99480.91
2022-09-14T16:39:04.966Z,99478.53
2022-09-14T16:41:32.286Z,99470.91
2022-09-14T16:44:00.212Z,99472.50
2022-09-14T16:46:28.834Z,99473.69
2022-09-14T16:48:56.235Z,99475.97
2022-09-14T16:51:23.794Z,99485.66
2022-09-14T16:53:51.760Z,99481.06
2022-09-14T16:56:21.214Z,99477.16
2022-09-14T16:58:50.235Z,99472.22
2022-09-14T17:01:22.680Z,99472.81
2022-09-14T17:03:51.437Z,99474.56
2022-09-14T17:06:21.504Z,99477.41
2022-09-14T17:08:49.244Z,99476.44
2022-09-14T17:11:16.979Z,99473.06
2022-09-14T17:13:45.047Z,99465.91
2022-09-14T17:16:14.817Z,99475.44
2022-09-14T17:18:43.170Z,99473.19
2022-09-14T17:21:14.192Z,99472.22
2022-09-14T17:23:41.642Z,99462.78
2022-09-14T17:26:09.935Z,99462.47
2022-09-14T17:28:38.373Z,99472.66
2022-09-14T17:31:07.337Z,99459.16
2022-09-14T17:33:35.761Z,99468.16
2022-09-14T17:36:05.319Z,99459.84
2022-09-14T17:38:38.400Z,99466.06
2022-09-14T17:41:11.108Z,99462.81
2022-09-14T17:43:40.020Z,99461.66
2022-09-14T17:46:10.280Z,99453.81
2022-09-14T17:48:38.731Z,99459.28
2022-09-14T17:51:20.451Z,99463.66
2022-09-14T17:53:50.803Z,99464.16
2022-09-14T17:56:20.197Z,99459.66
2022-09-14T17:58:48.221Z,99457.97
2022-09-14T18:01:25.262Z,99455.50
2022-09-14T18:03:55.140Z,99460.22
2022-09-14T18:06:24.145Z,99455.13
2022-09-14T18:08:55.925Z,99451.97
2022-09-14T18:11:23.991Z,99451.16
2022-09-14T18:13:51.286Z,99456.19
2022-09-14T18:16:18.956Z,99466.97
2022-09-14T18:18:46.073Z,99460.44
2022-09-14T18:21:14.476Z,99464.59
2022-09-14T18:23:41.144Z,99471.63
2022-09-14T18:26:08.032Z,99466.28
2022-09-14T18:28:36.054Z,99460.34
2022-09-14T18:31:09.098Z,99458.94
2022-09-14T18:33:36.479Z,99465.66
2022-09-14T18:36:05.334Z,99466.81
2022-09-14T18:38:33.067Z,99467.88
2022-09-14T18:41:07.906Z,99466.81
2022-09-14T18:43:35.129Z,99459.50
2022-09-14T18:46:08.490Z,99466.56
2022-09-14T18:48:35.377Z,99462.34
2022-09-14T18:51:04.868Z,99473.09
2022-09-14T18:53:32.181Z,99480.94
2022-09-14T18:56:04.248Z,99477.25
2022-09-14T18:58:39.096Z,99481.72
2022-09-14T19:01:07.355Z,99481.78
2022-09-14T19:03:35.619Z,99482.75
2022-09-14T19:06:07.539Z,99494.19
2022-09-14T19:08:34.535Z,99485.59
2022-09-14T19:11:09.746Z,99490.28
2022-09-14T19:13:36.994Z,99493.88
2022-09-14T19:16:13.552Z,99499.16
2022-09-14T19:18:41.675Z,99503.59
2022-09-14T19:21:13.190Z,99496.28
2022-09-14T19:23:40.248Z,99498.91
2022-09-14T19:26:09.822Z,99495.13
2022-09-14T19:28:37.556Z,99500.97
2022-09-14T19:31:08.014Z,99490.47
2022-09-14T19:33:35.380Z,99497.25
2022-09-14T19:36:15.542Z,99486.84
2022-09-14T19:38:42.764Z,99484.16
2022-09-14T19:41:09.740Z,99492.63
2022-09-14T19:43:36.672Z,99488.69
2022-09-14T19:46:04.150Z,99500.97
2022-09-14T19:48:31.669Z,99499.22
2022-09-14T19:51:02.233Z,99491.56
2022-09-14T19:53:30.611Z,99494.84
2022-09-14T19:55:57.400Z,99490.94
2022-09-14T19:58:26.328Z,99494.69
2022-09-14T20:00:56.880Z,99493.94
2022-09-14T20:03:24.260Z,99499.25
2022-09-14T20:06:04.917Z,99497.06
2022-09-14T20:08:33.071Z,99503.13
2022-09-14T20:11:07.967Z,99507.59
2022-09-14T20:13:35.811Z,99508.34
2022-09-14T20:16:19.061Z,99507.38
2022-09-14T20:18:47.484Z,99507.38
2022-09-14T20:21:23.450Z,99506.31
2022-09-14T20:24:17.775Z,99510.53
2022-09-14T20:26:49.439Z,99512.06
2022-09-14T20:29:18.069Z,99512.28
2022-09-14T20:31:45.739Z,99505.25
2022-09-14T20:34:13.817Z,99503.38
2022-09-14T20:36:40.457Z,99504.06
2022-09-14T20:39:07.216Z,99507.59
2022-09-14T20:41:35.310Z,99505.66
2022-09-14T20:44:02.972Z,99515.81
2022-09-14T20:46:34.839Z,99514.28
2022-09-14T20:49:05.061Z,99519.47
2022-09-14T20:51:32.308Z,99519.66
2022-09-14T20:53:58.885Z,99518.41
2022-09-14T20:56:28.182Z,99519.94
2022-09-14T20:58:58.002Z,99512.16
2022-09-14T21:01:28.017Z,99520.91
2022-09-14T21:03:55.597Z,99523.38
2022-09-14T21:06:23.386Z,99524.53
2022-09-14T21:08:50.449Z,99520.22
2022-09-14T21:11:23.085Z,99521.84
2022-09-14T21:13:51.525Z,99512.03
2022-09-14T21:16:25.646Z,99526.34
2022-09-14T21:18:55.993Z,99527.28
2022-09-14T21:21:22.993Z,99524.53
2022-09-14T21:23:50.417Z,99526.19
2022-09-14T21:26:17.983Z,99529.69
2022-09-14T21:28:45.032Z,99524.28
2022-09-14T21:31:17.828Z,99533.00
2022-09-14T21:33:47.165Z,99530.47
2022-09-14T21:36:19.675Z,99533.00
2022-09-14T21:38:54.030Z,99538.19
2022-09-14T21:41:22.494Z,99551.34
2022-09-14T21:43:49.692Z,99541.88
2022-09-14T21:46:17.258Z,99536.91
2022-09-14T21:48:44.116Z,99543.38
2022-09-14T21:51:18.265Z,99541.56
2022-09-14T21:53:53.344Z,99530.47
2022-09-14T21:56:21.859Z,99536.66
2022-09-14T21:58:53.515Z,99539.63
2022-09-14T22:01:24.375Z,99537.84
2022-09-14T22:03:52.728Z,99530.72
2022-09-14T22:06:22.259Z,99527.50
2022-09-14T22:08:50.409Z,99528.75
2022-09-14T22:11:25.170Z,99530.31
2022-09-14T22:13:57.006Z,99528.06
2022-09-14T22:16:24.838Z,99528.03
2022-09-14T22:18:57.497Z,99516.81
2022-09-14T22:21:27.376Z,99525.66
2022-09-14T22:23:59.275Z,99523.66
2022-09-14T22:26:28.658Z,99512.72
2022-09-14T22:28:56.998Z,99520.31
2022-09-14T22:31:24.370Z,99518.91
2022-09-14T22:33:51.610Z,99511.00
2022-09-14T22:36:18.346Z,99512.06
2022-09-14T22:38:45.699Z,99514.88
2022-09-14T22:41:14.161Z,99512.84
2022-09-14T22:43:41.182Z,99506.78
2022-09-14T22:46:08.723Z,99508.06
2022-09-14T22:48:36.604Z,99513.13
2022-09-14T22:51:04.606Z,99504.56
2022-09-14T22:53:31.512Z,99498.44
2022-09-14T22:55:58.499Z,99492.97
2022-09-14T22:58:27.359Z,99500.56
2022-09-14T23:00:54.157Z,99498.22
2022-09-14T23:03:21.005Z,99499.03
2022-09-14T23:05:55.684Z,99493.41
2022-09-14T23:08:23.281Z,99496.22
2022-09-14T23:10:49.923Z,99494.03
2022-09-14T23:13:17.152Z,99495.63
2022-09-14T23:15:44.227Z,99488.81
2022-09-14T23:18:11.115Z,99490.56
2022-09-14T23:20:43.320Z,99496.81
2022-09-14T23:23:11.513Z,99496.78
2022-09-14T23:25:40.108Z,99501.91
2022-09-14T23:28:10.197Z,99495.09
2022-09-14T23:30:37.122Z,99496.00
2022-09-14T23:33:03.849Z,99494.19
2022-09-14T23:35:32.834Z,99501.50
2022-09-14T23:38:01.313Z,99495.28
2022-09-14T23:40:27.906Z,99494.53
2022-09-14T23:42:54.578Z,99496.69
2022-09-14T23:45:21.160Z,99490.75
2022-09-14T23:47:47.792Z,99500.56
2022-09-14T23:50:14.435Z,99487.75
2022-09-14T23:52:41.366Z,99495.56
2022-09-14T23:55:08.563Z,99490.13
2022-09-14T23:57:36.617Z,99492.78
